sensor_id;sensor_type;location;lat;lon;timestamp;P1;durP1;ratioP1;P2;durP2;ratioP2
25023;SDS011;13033;50.936;5.334;2024-03-02T00:02:07;0.47;;;0.40;;
25023;SDS011;13033;50.936;5.334;2024-03-02T00:04:33;1.75;;;0.80;;
25023;SDS011;13033;50.936;5.334;2024-03-02T00:06:59;0.82;;;0.40;;
25023;SDS011;13033;50.936;5.334;2024-03-02T00:09:24;0.30;;;0.30;;
25023;SDS011;13033;50.936;5.334;2024-03-02T00:11:50;0.40;;;0.30;;
25023;SDS011;13033;50.936;5.334;2024-03-02T00:14:16;1.02;;;0.38;;
25023;SDS011;13033;50.936;5.334;2024-03-02T00:16:42;0.70;;;0.43;;
25023;SDS011;13033;50.936;5.334;2024-03-02T00:19:08;1.08;;;0.55;;
25023;SDS011;13033;50.936;5.334;2024-03-02T00:21:34;2.35;;;0.45;;
25023;SDS011;13033;50.936;5.334;2024-03-02T00:24:01;0.77;;;0.50;;
25023;SDS011;13033;50.936;5.334;2024-03-02T00:26:45;2.33;;;0.82;;
25023;SDS011;13033;50.936;5.334;2024-03-02T00:29:10;0.50;;;0.40;;
25023;SDS011;13033;50.936;5.334;2024-03-02T00:31:40;0.93;;;0.50;;
25023;SDS011;13033;50.936;5.334;2024-03-02T00:34:06;1.90;;;0.50;;
25023;SDS011;13033;50.936;5.334;2024-03-02T00:36:32;1.85;;;0.60;;
25023;SDS011;13033;50.936;5.334;2024-03-02T00:38:57;1.73;;;0.60;;
25023;SDS011;13033;50.936;5.334;2024-03-02T00:41:27;2.55;;;0.50;;
25023;SDS011;13033;50.936;5.334;2024-03-02T00:43:58;0.73;;;0.50;;
25023;SDS011;13033;50.936;5.334;2024-03-02T00:46:27;2.45;;;0.50;;
25023;SDS011;13033;50.936;5.334;2024-03-02T00:48:58;0.85;;;0.40;;
25023;SDS011;13033;50.936;5.334;2024-03-02T00:51:29;1.65;;;0.45;;
25023;SDS011;13033;50.936;5.334;2024-03-02T00:54:00;0.68;;;0.30;;
25023;SDS011;13033;50.936;5.334;2024-03-02T00:56:29;0.40;;;0.30;;
25023;SDS011;13033;50.936;5.334;2024-03-02T00:58:55;0.50;;;0.30;;
25023;SDS011;13033;50.936;5.334;2024-03-02T01:01:21;1.17;;;0.60;;
25023;SDS011;13033;50.936;5.334;2024-03-02T01:03:47;1.50;;;0.40;;
25023;SDS011;13033;50.936;5.334;2024-03-02T01:06:14;1.50;;;0.47;;
25023;SDS011;13033;50.936;5.334;2024-03-02T01:08:40;0.73;;;0.30;;
25023;SDS011;13033;50.936;5.334;2024-03-02T01:11:07;2.63;;;0.35;;
25023;SDS011;13033;50.936;5.334;2024-03-02T01:13:32;0.98;;;0.38;;
25023;SDS011;13033;50.936;5.334;2024-03-02T01:15:58;0.30;;;0.30;;
25023;SDS011;13033;50.936;5.334;2024-03-02T01:18:25;0.50;;;0.30;;
25023;SDS011;13033;50.936;5.334;2024-03-02T01:20:50;1.70;;;0.30;;
25023;SDS011;13033;50.936;5.334;2024-03-02T01:23:22;0.63;;;0.40;;
25023;SDS011;13033;50.936;5.334;2024-03-02T01:25:49;1.92;;;0.40;;
25023;SDS011;13033;50.936;5.334;2024-03-02T01:28:15;1.25;;;0.40;;
25023;SDS011;13033;50.936;5.334;2024-03-02T01:30:41;0.35;;;0.25;;
25023;SDS011;13033;50.936;5.334;2024-03-02T01:33:07;0.50;;;0.30;;
25023;SDS011;13033;50.936;5.334;2024-03-02T01:35:33;1.10;;;0.40;;
25023;SDS011;13033;50.936;5.334;2024-03-02T01:38:00;0.28;;;0.20;;
25023;SDS011;13033;50.936;5.334;2024-03-02T01:40:26;0.73;;;0.40;;
25023;SDS011;13033;50.936;5.334;2024-03-02T01:42:52;0.95;;;0.40;;
25023;SDS011;13033;50.936;5.334;2024-03-02T01:45:23;0.95;;;0.30;;
25023;SDS011;13033;50.936;5.334;2024-03-02T01:47:49;0.50;;;0.50;;
25023;SDS011;13033;50.936;5.334;2024-03-02T01:50:15;2.67;;;0.40;;
25023;SDS011;13033;50.936;5.334;2024-03-02T01:52:41;1.05;;;0.55;;
25023;SDS011;13033;50.936;5.334;2024-03-02T01:55:07;0.75;;;0.38;;
25023;SDS011;13033;50.936;5.334;2024-03-02T01:57:33;2.58;;;0.50;;
25023;SDS011;13033;50.936;5.334;2024-03-02T01:59:59;0.85;;;0.50;;
25023;SDS011;13033;50.936;5.334;2024-03-02T02:02:25;1.38;;;0.50;;
25023;SDS011;13033;50.936;5.334;2024-03-02T02:04:51;0.47;;;0.30;;
25023;SDS011;13033;50.936;5.334;2024-03-02T02:07:17;0.45;;;0.38;;
25023;SDS011;13033;50.936;5.334;2024-03-02T02:09:43;0.40;;;0.40;;
25023;SDS011;13033;50.936;5.334;2024-03-02T02:12:09;1.98;;;0.40;;
25023;SDS011;13033;50.936;5.334;2024-03-02T02:14:35;1.92;;;0.35;;
25023;SDS011;13033;50.936;5.334;2024-03-02T02:17:01;0.88;;;0.40;;
25023;SDS011;13033;50.936;5.334;2024-03-02T02:19:27;1.25;;;0.40;;
25023;SDS011;13033;50.936;5.334;2024-03-02T02:21:52;1.42;;;0.43;;
25023;SDS011;13033;50.936;5.334;2024-03-02T02:24:18;1.70;;;0.40;;
25023;SDS011;13033;50.936;5.334;2024-03-02T02:26:43;0.40;;;0.30;;
25023;SDS011;13033;50.936;5.334;2024-03-02T02:29:09;0.45;;;0.43;;
25023;SDS011;13033;50.936;5.334;2024-03-02T02:31:38;0.95;;;0.52;;
25023;SDS011;13033;50.936;5.334;2024-03-02T02:34:07;0.50;;;0.20;;
25023;SDS011;13033;50.936;5.334;2024-03-02T02:36:34;0.57;;;0.30;;
25023;SDS011;13033;50.936;5.334;2024-03-02T02:39:03;1.85;;;0.38;;
25023;SDS011;13033;50.936;5.334;2024-03-02T02:41:31;1.42;;;0.40;;
25023;SDS011;13033;50.936;5.334;2024-03-02T02:43:57;0.30;;;0.30;;
25023;SDS011;13033;50.936;5.334;2024-03-02T02:46:23;1.40;;;0.30;;
25023;SDS011;13033;50.936;5.334;2024-03-02T02:48:49;1.27;;;0.30;;
25023;SDS011;13033;50.936;5.334;2024-03-02T02:51:16;0.73;;;0.30;;
25023;SDS011;13033;50.936;5.334;2024-03-02T02:53:42;0.75;;;0.30;;
25023;SDS011;13033;50.936;5.334;2024-03-02T02:56:08;0.70;;;0.40;;
25023;SDS011;13033;50.936;5.334;2024-03-02T02:58:33;1.55;;;0.30;;
25023;SDS011;13033;50.936;5.334;2024-03-02T03:00:59;0.90;;;0.52;;
25023;SDS011;13033;50.936;5.334;2024-03-02T03:03:25;1.75;;;0.20;;
25023;SDS011;13033;50.936;5.334;2024-03-02T03:05:50;1.35;;;0.73;;
25023;SDS011;13033;50.936;5.334;2024-03-02T03:08:16;0.70;;;0.20;;
25023;SDS011;13033;50.936;5.334;2024-03-02T03:10:42;0.55;;;0.20;;
25023;SDS011;13033;50.936;5.334;2024-03-02T03:13:08;2.78;;;0.40;;
25023;SDS011;13033;50.936;5.334;2024-03-02T03:15:37;0.65;;;0.30;;
25023;SDS011;13033;50.936;5.334;2024-03-02T03:18:03;1.52;;;0.30;;
25023;SDS011;13033;50.936;5.334;2024-03-02T03:20:29;0.20;;;0.20;;
25023;SDS011;13033;50.936;5.334;2024-03-02T03:22:56;0.38;;;0.22;;
25023;SDS011;13033;50.936;5.334;2024-03-02T03:25:22;0.55;;;0.30;;
25023;SDS011;13033;50.936;5.334;2024-03-02T03:27:48;0.85;;;0.30;;
25023;SDS011;13033;50.936;5.334;2024-03-02T03:30:14;0.30;;;0.20;;
25023;SDS011;13033;50.936;5.334;2024-03-02T03:32:39;1.00;;;0.40;;
25023;SDS011;13033;50.936;5.334;2024-03-02T03:35:06;0.88;;;0.50;;
25023;SDS011;13033;50.936;5.334;2024-03-02T03:37:32;0.68;;;0.40;;
25023;SDS011;13033;50.936;5.334;2024-03-02T03:40:03;1.40;;;0.30;;
25023;SDS011;13033;50.936;5.334;2024-03-02T03:42:36;0.20;;;0.20;;
25023;SDS011;13033;50.936;5.334;2024-03-02T03:45:03;0.50;;;0.20;;
25023;SDS011;13033;50.936;5.334;2024-03-02T03:47:30;0.85;;;0.20;;
25023;SDS011;13033;50.936;5.334;2024-03-02T03:49:56;0.80;;;0.30;;
25023;SDS011;13033;50.936;5.334;2024-03-02T03:52:22;0.32;;;0.20;;
25023;SDS011;13033;50.936;5.334;2024-03-02T03:54:48;0.43;;;0.20;;
25023;SDS011;13033;50.936;5.334;2024-03-02T03:57:14;1.00;;;0.50;;
25023;SDS011;13033;50.936;5.334;2024-03-02T03:59:40;0.75;;;0.38;;
25023;SDS011;13033;50.936;5.334;2024-03-02T04:02:05;1.15;;;0.52;;
25023;SDS011;13033;50.936;5.334;2024-03-02T04:04:32;1.33;;;0.40;;
25023;SDS011;13033;50.936;5.334;2024-03-02T04:06:58;1.15;;;0.30;;
25023;SDS011;13033;50.936;5.334;2024-03-02T04:09:24;0.43;;;0.30;;
25023;SDS011;13033;50.936;5.334;2024-03-02T04:11:50;0.77;;;0.20;;
25023;SDS011;13033;50.936;5.334;2024-03-02T04:14:16;0.25;;;0.20;;
25023;SDS011;13033;50.936;5.334;2024-03-02T04:16:42;0.55;;;0.30;;
25023;SDS011;13033;50.936;5.334;2024-03-02T04:19:08;0.47;;;0.30;;
25023;SDS011;13033;50.936;5.334;2024-03-02T04:21:33;1.38;;;0.30;;
25023;SDS011;13033;50.936;5.334;2024-03-02T04:23:59;0.57;;;0.25;;
25023;SDS011;13033;50.936;5.334;2024-03-02T04:26:25;1.38;;;0.38;;
25023;SDS011;13033;50.936;5.334;2024-03-02T04:28:51;0.80;;;0.40;;
25023;SDS011;13033;50.936;5.334;2024-03-02T04:31:17;1.00;;;0.40;;
25023;SDS011;13033;50.936;5.334;2024-03-02T04:33:43;1.15;;;0.30;;
25023;SDS011;13033;50.936;5.334;2024-03-02T04:36:09;0.55;;;0.30;;
25023;SDS011;13033;50.936;5.334;2024-03-02T04:38:35;1.52;;;0.40;;
25023;SDS011;13033;50.936;5.334;2024-03-02T04:41:01;0.95;;;0.40;;
25023;SDS011;13033;50.936;5.334;2024-03-02T04:43:27;1.75;;;0.50;;
25023;SDS011;13033;50.936;5.334;2024-03-02T04:45:52;0.88;;;0.45;;
25023;SDS011;13033;50.936;5.334;2024-03-02T04:48:18;0.73;;;0.50;;
25023;SDS011;13033;50.936;5.334;2024-03-02T04:50:44;1.77;;;0.40;;
25023;SDS011;13033;50.936;5.334;2024-03-02T04:53:10;0.32;;;0.30;;
25023;SDS011;13033;50.936;5.334;2024-03-02T04:55:35;0.90;;;0.40;;
25023;SDS011;13033;50.936;5.334;2024-03-02T04:58:04;1.83;;;0.50;;
25023;SDS011;13033;50.936;5.334;2024-03-02T05:00:30;7.15;;;0.90;;
25023;SDS011;13033;50.936;5.334;2024-03-02T05:02:56;2.05;;;0.73;;
25023;SDS011;13033;50.936;5.334;2024-03-02T05:05:21;2.25;;;0.60;;
25023;SDS011;13033;50.936;5.334;2024-03-02T05:07:47;0.70;;;0.30;;
25023;SDS011;13033;50.936;5.334;2024-03-02T05:10:13;0.70;;;0.40;;
25023;SDS011;13033;50.936;5.334;2024-03-02T05:12:40;2.10;;;0.40;;
25023;SDS011;13033;50.936;5.334;2024-03-02T05:15:13;1.00;;;0.50;;
25023;SDS011;13033;50.936;5.334;2024-03-02T05:17:39;1.23;;;0.40;;
25023;SDS011;13033;50.936;5.334;2024-03-02T05:20:06;0.90;;;0.50;;
25023;SDS011;13033;50.936;5.334;2024-03-02T05:22:35;0.98;;;0.38;;
25023;SDS011;13033;50.936;5.334;2024-03-02T05:25:02;3.85;;;0.68;;
25023;SDS011;13033;50.936;5.334;2024-03-02T05:27:28;3.30;;;0.50;;
25023;SDS011;13033;50.936;5.334;2024-03-02T05:29:54;2.40;;;0.50;;
25023;SDS011;13033;50.936;5.334;2024-03-02T05:32:20;0.82;;;0.43;;
25023;SDS011;13033;50.936;5.334;2024-03-02T05:34:46;1.13;;;0.50;;
25023;SDS011;13033;50.936;5.334;2024-03-02T05:37:12;1.85;;;0.50;;
25023;SDS011;13033;50.936;5.334;2024-03-02T05:39:37;0.70;;;0.47;;
25023;SDS011;13033;50.936;5.334;2024-03-02T05:42:03;1.10;;;0.75;;
25023;SDS011;13033;50.936;5.334;2024-03-02T05:44:29;1.73;;;0.55;;
25023;SDS011;13033;50.936;5.334;2024-03-02T05:46:55;2.13;;;0.63;;
25023;SDS011;13033;50.936;5.334;2024-03-02T05:49:21;1.58;;;0.50;;
25023;SDS011;13033;50.936;5.334;2024-03-02T05:51:47;2.47;;;0.60;;
25023;SDS011;13033;50.936;5.334;2024-03-02T05:54:12;1.77;;;0.40;;
25023;SDS011;13033;50.936;5.334;2024-03-02T05:56:38;2.70;;;0.63;;
25023;SDS011;13033;50.936;5.334;2024-03-02T05:59:04;5.22;;;1.05;;
25023;SDS011;13033;50.936;5.334;2024-03-02T06:04:05;2.78;;;0.60;;
25023;SDS011;13033;50.936;5.334;2024-03-02T06:06:31;2.88;;;0.60;;
25023;SDS011;13033;50.936;5.334;2024-03-02T06:08:59;2.53;;;0.77;;
25023;SDS011;13033;50.936;5.334;2024-03-02T06:11:32;3.95;;;0.75;;
25023;SDS011;13033;50.936;5.334;2024-03-02T06:14:01;1.95;;;0.65;;
25023;SDS011;13033;50.936;5.334;2024-03-02T06:16:27;5.07;;;0.60;;
25023;SDS011;13033;50.936;5.334;2024-03-02T06:18:53;2.10;;;0.65;;
25023;SDS011;13033;50.936;5.334;2024-03-02T06:21:19;2.70;;;0.60;;
25023;SDS011;13033;50.936;5.334;2024-03-02T06:23:45;3.10;;;0.68;;
25023;SDS011;13033;50.936;5.334;2024-03-02T06:26:11;1.35;;;0.50;;
25023;SDS011;13033;50.936;5.334;2024-03-02T06:28:37;5.07;;;0.60;;
25023;SDS011;13033;50.936;5.334;2024-03-02T06:31:03;1.48;;;0.40;;
25023;SDS011;13033;50.936;5.334;2024-03-02T06:33:29;2.10;;;0.70;;
25023;SDS011;13033;50.936;5.334;2024-03-02T06:35:55;1.17;;;0.47;;
25023;SDS011;13033;50.936;5.334;2024-03-02T06:38:20;2.90;;;0.82;;
25023;SDS011;13033;50.936;5.334;2024-03-02T06:40:46;1.45;;;0.57;;
25023;SDS011;13033;50.936;5.334;2024-03-02T06:43:11;5.25;;;0.75;;
25023;SDS011;13033;50.936;5.334;2024-03-02T06:45:37;3.95;;;0.70;;
25023;SDS011;13033;50.936;5.334;2024-03-02T06:48:03;2.13;;;0.60;;
25023;SDS011;13033;50.936;5.334;2024-03-02T06:50:29;4.13;;;0.80;;
25023;SDS011;13033;50.936;5.334;2024-03-02T06:52:55;3.80;;;0.70;;
25023;SDS011;13033;50.936;5.334;2024-03-02T06:55:21;3.85;;;1.05;;
25023;SDS011;13033;50.936;5.334;2024-03-02T06:57:47;2.15;;;0.85;;
25023;SDS011;13033;50.936;5.334;2024-03-02T07:00:13;5.00;;;0.95;;
25023;SDS011;13033;50.936;5.334;2024-03-02T07:02:39;7.75;;;0.73;;
25023;SDS011;13033;50.936;5.334;2024-03-02T07:05:07;2.65;;;0.75;;
25023;SDS011;13033;50.936;5.334;2024-03-02T07:07:33;6.63;;;1.00;;
25023;SDS011;13033;50.936;5.334;2024-03-02T07:10:00;2.03;;;0.88;;
25023;SDS011;13033;50.936;5.334;2024-03-02T07:12:26;3.45;;;0.63;;
25023;SDS011;13033;50.936;5.334;2024-03-02T07:14:52;1.67;;;0.70;;
25023;SDS011;13033;50.936;5.334;2024-03-02T07:17:36;3.63;;;1.00;;
25023;SDS011;13033;50.936;5.334;2024-03-02T07:20:02;2.47;;;0.60;;
25023;SDS011;13033;50.936;5.334;2024-03-02T07:22:28;3.35;;;0.70;;
25023;SDS011;13033;50.936;5.334;2024-03-02T07:24:54;4.75;;;0.82;;
25023;SDS011;13033;50.936;5.334;2024-03-02T07:27:20;1.90;;;0.60;;
25023;SDS011;13033;50.936;5.334;2024-03-02T07:29:46;4.07;;;0.80;;
25023;SDS011;13033;50.936;5.334;2024-03-02T07:32:12;2.65;;;0.65;;
25023;SDS011;13033;50.936;5.334;2024-03-02T07:34:38;5.43;;;0.80;;
25023;SDS011;13033;50.936;5.334;2024-03-02T07:37:03;5.72;;;1.27;;
25023;SDS011;13033;50.936;5.334;2024-03-02T07:39:29;1.90;;;0.68;;
25023;SDS011;13033;50.936;5.334;2024-03-02T07:41:55;3.50;;;0.77;;
25023;SDS011;13033;50.936;5.334;2024-03-02T07:44:21;5.38;;;0.98;;
25023;SDS011;13033;50.936;5.334;2024-03-02T07:46:47;4.30;;;1.10;;
25023;SDS011;13033;50.936;5.334;2024-03-02T07:49:17;4.35;;;0.90;;
25023;SDS011;13033;50.936;5.334;2024-03-02T07:51:45;4.32;;;1.00;;
25023;SDS011;13033;50.936;5.334;2024-03-02T07:54:11;5.25;;;1.10;;
25023;SDS011;13033;50.936;5.334;2024-03-02T07:56:37;4.30;;;0.90;;
25023;SDS011;13033;50.936;5.334;2024-03-02T07:59:03;3.42;;;0.93;;
25023;SDS011;13033;50.936;5.334;2024-03-02T08:01:29;1.85;;;0.88;;
25023;SDS011;13033;50.936;5.334;2024-03-02T08:03:59;2.30;;;1.00;;
25023;SDS011;13033;50.936;5.334;2024-03-02T08:06:26;2.72;;;0.82;;
25023;SDS011;13033;50.936;5.334;2024-03-02T08:08:56;4.05;;;1.10;;
25023;SDS011;13033;50.936;5.334;2024-03-02T08:11:25;4.35;;;0.95;;
25023;SDS011;13033;50.936;5.334;2024-03-02T08:13:56;3.15;;;1.00;;
25023;SDS011;13033;50.936;5.334;2024-03-02T08:16:24;4.60;;;0.88;;
25023;SDS011;13033;50.936;5.334;2024-03-02T08:18:50;3.67;;;0.90;;
25023;SDS011;13033;50.936;5.334;2024-03-02T08:21:17;2.53;;;0.93;;
25023;SDS011;13033;50.936;5.334;2024-03-02T08:23:43;5.55;;;1.02;;
25023;SDS011;13033;50.936;5.334;2024-03-02T08:26:09;4.10;;;0.95;;
25023;SDS011;13033;50.936;5.334;2024-03-02T08:28:35;3.50;;;1.00;;
25023;SDS011;13033;50.936;5.334;2024-03-02T08:31:07;2.90;;;0.75;;
25023;SDS011;13033;50.936;5.334;2024-03-02T08:33:34;2.75;;;0.75;;
25023;SDS011;13033;50.936;5.334;2024-03-02T08:36:00;3.35;;;0.70;;
25023;SDS011;13033;50.936;5.334;2024-03-02T08:38:25;3.35;;;0.90;;
25023;SDS011;13033;50.936;5.334;2024-03-02T08:40:51;2.60;;;0.85;;
25023;SDS011;13033;50.936;5.334;2024-03-02T08:43:17;2.78;;;0.80;;
25023;SDS011;13033;50.936;5.334;2024-03-02T08:45:43;3.58;;;0.75;;
25023;SDS011;13033;50.936;5.334;2024-03-02T08:48:08;6.32;;;0.93;;
25023;SDS011;13033;50.936;5.334;2024-03-02T08:50:37;6.00;;;1.08;;
25023;SDS011;13033;50.936;5.334;2024-03-02T08:53:03;2.60;;;0.80;;
25023;SDS011;13033;50.936;5.334;2024-03-02T08:55:29;3.70;;;1.17;;
25023;SDS011;13033;50.936;5.334;2024-03-02T08:57:55;3.03;;;0.73;;
25023;SDS011;13033;50.936;5.334;2024-03-02T09:00:21;5.43;;;0.82;;
25023;SDS011;13033;50.936;5.334;2024-03-02T09:02:48;4.25;;;1.27;;
25023;SDS011;13033;50.936;5.334;2024-03-02T09:05:14;5.10;;;0.68;;
25023;SDS011;13033;50.936;5.334;2024-03-02T09:07:40;2.08;;;0.88;;
25023;SDS011;13033;50.936;5.334;2024-03-02T09:10:06;3.97;;;0.75;;
25023;SDS011;13033;50.936;5.334;2024-03-02T09:12:32;2.88;;;0.98;;
25023;SDS011;13033;50.936;5.334;2024-03-02T09:14:59;4.53;;;0.90;;
25023;SDS011;13033;50.936;5.334;2024-03-02T09:17:26;3.67;;;0.93;;
25023;SDS011;13033;50.936;5.334;2024-03-02T09:19:51;3.00;;;0.90;;
25023;SDS011;13033;50.936;5.334;2024-03-02T09:22:20;3.67;;;0.95;;
25023;SDS011;13033;50.936;5.334;2024-03-02T09:24:45;8.15;;;1.50;;
25023;SDS011;13033;50.936;5.334;2024-03-02T09:27:11;6.00;;;1.15;;
25023;SDS011;13033;50.936;5.334;2024-03-02T09:29:37;7.78;;;1.08;;
25023;SDS011;13033;50.936;5.334;2024-03-02T09:32:03;4.43;;;0.80;;
25023;SDS011;13033;50.936;5.334;2024-03-02T09:34:30;3.40;;;0.80;;
25023;SDS011;13033;50.936;5.334;2024-03-02T09:36:58;6.75;;;1.20;;
25023;SDS011;13033;50.936;5.334;2024-03-02T09:39:23;4.60;;;1.45;;
25023;SDS011;13033;50.936;5.334;2024-03-02T09:41:50;3.90;;;0.90;;
25023;SDS011;13033;50.936;5.334;2024-03-02T09:44:16;3.05;;;0.82;;
25023;SDS011;13033;50.936;5.334;2024-03-02T09:46:42;5.28;;;1.00;;
25023;SDS011;13033;50.936;5.334;2024-03-02T09:49:09;3.80;;;1.08;;
25023;SDS011;13033;50.936;5.334;2024-03-02T09:51:36;2.97;;;1.08;;
25023;SDS011;13033;50.936;5.334;2024-03-02T09:54:02;5.70;;;0.88;;
25023;SDS011;13033;50.936;5.334;2024-03-02T09:56:28;4.15;;;0.63;;
25023;SDS011;13033;50.936;5.334;2024-03-02T09:58:54;7.93;;;1.23;;
25023;SDS011;13033;50.936;5.334;2024-03-02T10:01:19;5.47;;;1.45;;
25023;SDS011;13033;50.936;5.334;2024-03-02T10:03:45;7.15;;;1.30;;
25023;SDS011;13033;50.936;5.334;2024-03-02T10:06:23;3.05;;;0.80;;
25023;SDS011;13033;50.936;5.334;2024-03-02T10:08:50;3.03;;;0.70;;
25023;SDS011;13033;50.936;5.334;2024-03-02T10:11:25;2.05;;;0.63;;
25023;SDS011;13033;50.936;5.334;2024-03-02T10:16:38;4.65;;;0.93;;
25023;SDS011;13033;50.936;5.334;2024-03-02T10:19:21;3.05;;;0.77;;
25023;SDS011;13033;50.936;5.334;2024-03-02T10:24:15;5.32;;;0.85;;
25023;SDS011;13033;50.936;5.334;2024-03-02T10:26:41;3.60;;;0.90;;
25023;SDS011;13033;50.936;5.334;2024-03-02T10:29:11;3.78;;;1.13;;
25023;SDS011;13033;50.936;5.334;2024-03-02T10:31:41;5.45;;;0.98;;
25023;SDS011;13033;50.936;5.334;2024-03-02T10:34:09;3.50;;;0.98;;
25023;SDS011;13033;50.936;5.334;2024-03-02T10:36:35;4.00;;;1.00;;
25023;SDS011;13033;50.936;5.334;2024-03-02T10:39:05;4.55;;;1.02;;
25023;SDS011;13033;50.936;5.334;2024-03-02T10:41:32;5.28;;;1.00;;
25023;SDS011;13033;50.936;5.334;2024-03-02T10:44:01;4.45;;;1.60;;
25023;SDS011;13033;50.936;5.334;2024-03-02T10:46:29;4.00;;;0.98;;
25023;SDS011;13033;50.936;5.334;2024-03-02T10:48:59;4.30;;;0.90;;
25023;SDS011;13033;50.936;5.334;2024-03-02T10:51:26;2.78;;;0.93;;
25023;SDS011;13033;50.936;5.334;2024-03-02T10:53:56;4.18;;;0.70;;
25023;SDS011;13033;50.936;5.334;2024-03-02T10:59:14;5.35;;;1.10;;
25023;SDS011;13033;50.936;5.334;2024-03-02T11:01:47;5.38;;;1.10;;
25023;SDS011;13033;50.936;5.334;2024-03-02T11:04:18;6.07;;;1.08;;
25023;SDS011;13033;50.936;5.334;2024-03-02T11:06:46;4.43;;;0.98;;
25023;SDS011;13033;50.936;5.334;2024-03-02T11:09:13;3.33;;;0.77;;
25023;SDS011;13033;50.936;5.334;2024-03-02T11:11:42;4.10;;;1.10;;
25023;SDS011;13033;50.936;5.334;2024-03-02T11:14:13;5.40;;;0.73;;
25023;SDS011;13033;50.936;5.334;2024-03-02T11:16:41;6.50;;;1.20;;
25023;SDS011;13033;50.936;5.334;2024-03-02T11:19:10;4.68;;;0.73;;
25023;SDS011;13033;50.936;5.334;2024-03-02T11:21:37;6.05;;;1.10;;
25023;SDS011;13033;50.936;5.334;2024-03-02T11:26:52;3.58;;;1.00;;
25023;SDS011;13033;50.936;5.334;2024-03-02T11:32:04;6.07;;;1.25;;
25023;SDS011;13033;50.936;5.334;2024-03-02T11:34:32;4.97;;;0.95;;
25023;SDS011;13033;50.936;5.334;2024-03-02T11:37:01;3.85;;;1.05;;
25023;SDS011;13033;50.936;5.334;2024-03-02T11:39:28;3.50;;;1.13;;
25023;SDS011;13033;50.936;5.334;2024-03-02T11:41:55;4.15;;;1.05;;
25023;SDS011;13033;50.936;5.334;2024-03-02T11:44:22;5.55;;;1.10;;
25023;SDS011;13033;50.936;5.334;2024-03-02T11:46:59;3.83;;;0.82;;
25023;SDS011;13033;50.936;5.334;2024-03-02T11:52:09;7.43;;;1.10;;
25023;SDS011;13033;50.936;5.334;2024-03-02T11:54:36;5.78;;;1.30;;
25023;SDS011;13033;50.936;5.334;2024-03-02T11:57:11;2.65;;;1.10;;
25023;SDS011;13033;50.936;5.334;2024-03-02T11:59:39;4.07;;;1.08;;
25023;SDS011;13033;50.936;5.334;2024-03-02T12:02:05;5.20;;;0.93;;
25023;SDS011;13033;50.936;5.334;2024-03-02T12:04:31;4.72;;;0.80;;
25023;SDS011;13033;50.936;5.334;2024-03-02T12:07:00;4.13;;;0.90;;
25023;SDS011;13033;50.936;5.334;2024-03-02T12:09:27;9.70;;;1.25;;
25023;SDS011;13033;50.936;5.334;2024-03-02T12:12:09;4.95;;;1.42;;
25023;SDS011;13033;50.936;5.334;2024-03-02T12:14:38;5.45;;;0.90;;
25023;SDS011;13033;50.936;5.334;2024-03-02T12:17:04;1.75;;;0.65;;
25023;SDS011;13033;50.936;5.334;2024-03-02T12:19:31;3.30;;;1.00;;
25023;SDS011;13033;50.936;5.334;2024-03-02T12:21:58;4.65;;;1.10;;
25023;SDS011;13033;50.936;5.334;2024-03-02T12:24:27;4.65;;;1.15;;
25023;SDS011;13033;50.936;5.334;2024-03-02T12:26:53;5.60;;;1.20;;
25023;SDS011;13033;50.936;5.334;2024-03-02T12:29:20;3.40;;;0.95;;
25023;SDS011;13033;50.936;5.334;2024-03-02T12:31:49;6.20;;;1.00;;
25023;SDS011;13033;50.936;5.334;2024-03-02T12:34:17;3.28;;;1.00;;
25023;SDS011;13033;50.936;5.334;2024-03-02T12:36:43;6.07;;;0.93;;
25023;SDS011;13033;50.936;5.334;2024-03-02T12:39:12;2.70;;;1.02;;
25023;SDS011;13033;50.936;5.334;2024-03-02T12:41:38;3.08;;;0.75;;
25023;SDS011;13033;50.936;5.334;2024-03-02T12:44:05;3.42;;;0.80;;
25023;SDS011;13033;50.936;5.334;2024-03-02T12:46:31;2.83;;;0.80;;
25023;SDS011;13033;50.936;5.334;2024-03-02T12:48:57;5.07;;;0.88;;
25023;SDS011;13033;50.936;5.334;2024-03-02T12:51:24;4.32;;;0.90;;
25023;SDS011;13033;50.936;5.334;2024-03-02T12:53:57;6.25;;;1.00;;
25023;SDS011;13033;50.936;5.334;2024-03-02T12:56:23;5.25;;;1.10;;
25023;SDS011;13033;50.936;5.334;2024-03-02T12:58:56;7.03;;;1.08;;
25023;SDS011;13033;50.936;5.334;2024-03-02T13:01:22;4.38;;;0.73;;
25023;SDS011;13033;50.936;5.334;2024-03-02T13:03:49;3.53;;;0.63;;
25023;SDS011;13033;50.936;5.334;2024-03-02T13:06:17;4.90;;;0.75;;
25023;SDS011;13033;50.936;5.334;2024-03-02T13:08:45;3.95;;;1.10;;
25023;SDS011;13033;50.936;5.334;2024-03-02T13:11:13;2.33;;;0.80;;
25023;SDS011;13033;50.936;5.334;2024-03-02T13:13:40;3.47;;;0.90;;
25023;SDS011;13033;50.936;5.334;2024-03-02T13:16:09;2.85;;;0.90;;
25023;SDS011;13033;50.936;5.334;2024-03-02T13:18:36;4.07;;;1.00;;
25023;SDS011;13033;50.936;5.334;2024-03-02T13:21:03;5.00;;;1.00;;
25023;SDS011;13033;50.936;5.334;2024-03-02T13:23:29;3.03;;;1.05;;
25023;SDS011;13033;50.936;5.334;2024-03-02T13:25:58;1.88;;;0.70;;
25023;SDS011;13033;50.936;5.334;2024-03-02T13:28:24;3.60;;;1.10;;
25023;SDS011;13033;50.936;5.334;2024-03-02T13:30:50;5.45;;;1.20;;
25023;SDS011;13033;50.936;5.334;2024-03-02T13:33:16;2.00;;;0.90;;
25023;SDS011;13033;50.936;5.334;2024-03-02T13:35:50;3.72;;;0.98;;
25023;SDS011;13033;50.936;5.334;2024-03-02T13:38:20;5.60;;;1.00;;
25023;SDS011;13033;50.936;5.334;2024-03-02T13:40:46;2.50;;;0.70;;
25023;SDS011;13033;50.936;5.334;2024-03-02T13:43:16;2.85;;;0.88;;
25023;SDS011;13033;50.936;5.334;2024-03-02T13:45:43;7.65;;;1.10;;
25023;SDS011;13033;50.936;5.334;2024-03-02T13:48:09;4.45;;;1.05;;
25023;SDS011;13033;50.936;5.334;2024-03-02T13:50:34;2.88;;;0.93;;
25023;SDS011;13033;50.936;5.334;2024-03-02T13:53:01;5.32;;;1.00;;
25023;SDS011;13033;50.936;5.334;2024-03-02T13:55:28;6.65;;;0.95;;
25023;SDS011;13033;50.936;5.334;2024-03-02T13:57:54;2.78;;;1.05;;
25023;SDS011;13033;50.936;5.334;2024-03-02T14:00:20;1.48;;;0.75;;
25023;SDS011;13033;50.936;5.334;2024-03-02T14:02:46;3.85;;;0.80;;
25023;SDS011;13033;50.936;5.334;2024-03-02T14:05:14;3.08;;;1.13;;
25023;SDS011;13033;50.936;5.334;2024-03-02T14:07:40;3.00;;;0.85;;
25023;SDS011;13033;50.936;5.334;2024-03-02T14:10:06;3.42;;;0.80;;
25023;SDS011;13033;50.936;5.334;2024-03-02T14:12:32;2.35;;;0.65;;
25023;SDS011;13033;50.936;5.334;2024-03-02T14:14:58;2.30;;;0.60;;
25023;SDS011;13033;50.936;5.334;2024-03-02T14:17:24;1.10;;;0.90;;
25023;SDS011;13033;50.936;5.334;2024-03-02T14:19:50;2.58;;;0.80;;
25023;SDS011;13033;50.936;5.334;2024-03-02T14:22:18;3.70;;;0.80;;
25023;SDS011;13033;50.936;5.334;2024-03-02T14:24:47;1.42;;;0.85;;
25023;SDS011;13033;50.936;5.334;2024-03-02T14:27:14;2.28;;;0.82;;
25023;SDS011;13033;50.936;5.334;2024-03-02T14:29:40;2.42;;;0.75;;
25023;SDS011;13033;50.936;5.334;2024-03-02T14:32:08;1.88;;;0.70;;
25023;SDS011;13033;50.936;5.334;2024-03-02T14:34:34;2.13;;;0.95;;
25023;SDS011;13033;50.936;5.334;2024-03-02T14:37:00;4.05;;;0.90;;
25023;SDS011;13033;50.936;5.334;2024-03-02T14:39:26;2.70;;;1.02;;
25023;SDS011;13033;50.936;5.334;2024-03-02T14:41:52;1.80;;;1.00;;
25023;SDS011;13033;50.936;5.334;2024-03-02T14:44:18;4.35;;;0.95;;
25023;SDS011;13033;50.936;5.334;2024-03-02T14:46:46;3.10;;;1.40;;
25023;SDS011;13033;50.936;5.334;2024-03-02T14:49:13;1.25;;;0.82;;
25023;SDS011;13033;50.936;5.334;2024-03-02T14:51:38;3.83;;;1.08;;
25023;SDS011;13033;50.936;5.334;2024-03-02T14:54:04;2.97;;;1.00;;
25023;SDS011;13033;50.936;5.334;2024-03-02T14:56:30;2.58;;;1.13;;
25023;SDS011;13033;50.936;5.334;2024-03-02T14:58:56;3.50;;;0.70;;
25023;SDS011;13033;50.936;5.334;2024-03-02T15:01:21;0.80;;;0.68;;
25023;SDS011;13033;50.936;5.334;2024-03-02T15:03:50;1.85;;;0.80;;
25023;SDS011;13033;50.936;5.334;2024-03-02T15:06:16;2.33;;;0.80;;